Terminal Aerodrome Forecast
Issued by NWS

Home | Current Version | Previous Version | Text Only | Print | Product List | Glossary On
Versions: 1 2 3 4 5 6 7 8 9 10 11 12 13 14 15
000
FTUS46 KLOX 270520
TAFSBA
TAF
KSBA 270520Z 2706/2806 VRB03KT P6SM SKC WS015/34025KT
     FM271000 VRB03KT P6SM SKC
     FM271300 10005KT P6SM OVC015
     FM271800 16007KT P6SM BKN020
     FM272000 24008KT P6SM SKC
     FM280200 VRB03KT P6SM SKC=

USA.gov is the U.S. government's official web portal to all federal, state and local government web resources and services.